Time;durP1;ratioP1;P1;durP2;ratioP2;P2;SDS_P1;SDS_P2;PMS_P1;PMS_P2;Temp;Humidity;BMP_temperature;BMP_pressure;BME280_temperature;BME280_humidity;BME280_pressure;Samples;Min_cycle;Max_cycle;Signal;HPM_P1;HPM_P2
2021/12/28 00:02:29;;;;;;;12.89;2.20;;;;;;;8.53;97.63;97667.41;1981718;79;25614;-73
2021/12/28 00:05:32;;;;;;;12.21;2.36;;;;;;;8.56;97.37;97663.88;1979336;81;20423;-73
2021/12/28 00:08:35;;;;;;;15.16;2.53;;;;;;;8.56;97.00;97648.38;1983129;81;20333;-73
2021/12/28 00:11:37;;;;;;;12.91;2.60;;;;;;;8.53;96.71;97640.69;1982337;81;20349;-74
2021/12/28 00:14:49;;;;;;;14.27;2.26;;;;;;;8.47;96.52;97639.94;1981333;81;20939;-75
2021/12/28 00:18:00;;;;;;;10.98;2.53;;;;;;;8.46;96.61;97635.66;1979214;79;22657;-74
2021/12/28 00:21:05;;;;;;;18.11;2.69;;;;;;;8.43;96.49;97633.13;1981062;81;20337;-73
2021/12/28 00:24:07;;;;;;;11.64;1.84;;;;;;;8.42;96.39;97625.41;1981095;82;20400;-73
2021/12/28 00:27:11;;;;;;;17.64;2.34;;;;;;;8.41;96.34;97626.31;1981639;81;20340;-73
2021/12/28 00:30:13;;;;;;;16.69;2.41;;;;;;;8.38;96.21;97629.81;1981184;81;20923;-74
2021/12/28 00:33:19;;;;;;;18.91;4.05;;;;;;;8.38;96.43;97621.22;2042150;71;20368;-73
2021/12/28 00:36:21;;;;;;;11.68;2.16;;;;;;;8.36;96.30;97622.97;1988364;81;20332;-73
2021/12/28 00:39:24;;;;;;;11.55;2.22;;;;;;;8.35;96.41;97619.56;1988373;81;20335;-74
2021/12/28 00:42:26;;;;;;;18.04;3.08;;;;;;;8.35;96.35;97611.78;1987016;81;20401;-73
2021/12/28 00:45:29;;;;;;;16.84;2.28;;;;;;;8.36;96.36;97613.50;1985878;79;25448;-73
2021/12/28 00:48:32;;;;;;;13.10;2.26;;;;;;;8.35;96.35;97610.94;1987895;81;20377;-73
2021/12/28 00:51:37;;;;;;;12.20;2.20;;;;;;;8.37;96.35;97604.84;1988595;81;20465;-73
2021/12/28 00:54:39;;;;;;;11.26;1.85;;;;;;;8.36;96.29;97599.72;1988168;81;20660;-72
2021/12/28 00:57:42;;;;;;;14.40;3.09;;;;;;;8.36;96.20;97604.88;1988534;81;20327;-72
2021/12/28 01:00:45;;;;;;;13.24;2.21;;;;;;;8.38;96.24;97596.19;1986582;79;21064;-74
2021/12/28 01:03:48;;;;;;;13.05;2.25;;;;;;;8.39;96.19;97591.88;1987623;81;20323;-73
2021/12/28 01:06:55;;;;;;;8.26;1.48;;;;;;;8.39;96.31;97597.03;1987761;81;20319;-73
2021/12/28 01:09:58;;;;;;;16.80;2.38;;;;;;;8.42;96.22;97584.03;1988205;81;20354;-73
2021/12/28 01:13:02;;;;;;;11.36;1.89;;;;;;;8.42;96.07;97574.53;1987813;81;20355;-73
2021/12/28 01:16:05;;;;;;;10.57;2.19;;;;;;;8.42;96.02;97569.38;1985800;79;21551;-73
2021/12/28 01:19:08;;;;;;;14.25;2.88;;;;;;;8.41;95.95;97569.41;1987635;81;20327;-74
2021/12/28 01:22:10;;;;;;;11.32;2.00;;;;;;;8.39;96.03;97571.19;1988045;81;20566;-72
2021/12/28 01:25:15;;;;;;;16.51;2.49;;;;;;;8.41;96.22;97566.81;1983699;81;20328;-74
2021/12/28 01:28:19;;;;;;;9.45;1.73;;;;;;;8.40;96.14;97562.53;1987591;81;20334;-73
2021/12/28 01:31:22;;;;;;;8.85;1.60;;;;;;;8.41;96.40;97569.41;1986483;79;21476;-73
2021/12/28 01:34:25;;;;;;;10.00;1.67;;;;;;;8.41;96.19;97565.09;1988594;81;20320;-73
2021/12/28 01:37:27;;;;;;;8.39;1.48;;;;;;;8.42;96.33;97553.84;1987640;81;20339;-73
2021/12/28 01:40:34;;;;;;;9.32;1.73;;;;;;;8.46;96.16;97557.22;1988459;81;20406;-73
2021/12/28 01:43:40;;;;;;;11.27;1.96;;;;;;;8.46;96.02;97550.31;1987799;81;20946;-73
2021/12/28 01:46:43;;;;;;;14.40;1.71;;;;;;;8.48;95.95;97542.53;1985466;79;20425;-73
2021/12/28 01:49:45;;;;;;;7.15;1.20;;;;;;;8.50;95.82;97547.66;1988291;81;20480;-73
2021/12/28 01:52:48;;;;;;;10.18;1.20;;;;;;;8.51;95.81;97551.94;1988327;81;21249;-73
2021/12/28 01:55:54;;;;;;;9.00;1.38;;;;;;;8.52;95.68;97548.47;1987941;81;20353;-73
2021/12/28 01:58:58;;;;;;;10.52;1.79;;;;;;;8.53;95.67;97535.47;1987751;81;20871;-73
2021/12/28 02:02:00;;;;;;;7.80;1.61;;;;;;;8.56;95.57;97540.56;1986308;79;20332;-73
2021/12/28 02:05:04;;;;;;;8.04;1.44;;;;;;;8.60;95.16;97537.00;1987736;81;20344;-75
2021/12/28 02:08:09;;;;;;;8.16;1.71;;;;;;;8.60;95.17;97537.00;1988694;81;20365;-73
2021/12/28 02:11:13;;;;;;;8.24;1.30;;;;;;;8.60;95.21;97529.25;1988127;81;20375;-72
2021/12/28 02:14:16;;;;;;;9.04;1.84;;;;;;;8.60;95.44;97534.41;1987408;81;20377;-72
2021/12/28 02:17:18;;;;;;;7.84;1.11;;;;;;;8.58;95.65;97531.03;1986574;79;20549;-73
2021/12/28 02:20:21;;;;;;;4.74;1.38;;;;;;;8.55;95.97;97512.16;1987254;81;20332;-72
2021/12/28 02:23:24;;;;;;;9.59;1.25;;;;;;;8.52;96.42;97500.16;1987827;81;20446;-72
2021/12/28 02:26:27;;;;;;;6.41;0.93;;;;;;;8.53;96.89;97501.00;1987301;81;20327;-73
2021/12/28 02:29:30;;;;;;;5.04;1.08;;;;;;;8.50;97.04;97485.56;1987531;81;20871;-72
2021/12/28 02:32:33;;;;;;;7.90;1.02;;;;;;;8.50;97.39;97470.06;1982733;79;22968;-72
2021/12/28 02:35:37;;;;;;;4.55;1.11;;;;;;;8.50;97.43;97468.31;1987259;81;20335;-72
2021/12/28 02:38:39;;;;;;;3.85;0.74;;;;;;;8.52;97.58;97463.94;1988382;81;20944;-73
2021/12/28 02:41:42;;;;;;;3.64;0.71;;;;;;;8.51;97.43;97466.56;1987702;81;20335;-72
2021/12/28 02:44:45;;;;;;;4.69;1.05;;;;;;;8.50;97.72;97462.28;1988399;81;20351;-72
2021/12/28 02:47:48;;;;;;;4.14;0.98;;;;;;;8.50;97.93;97459.72;1986012;79;21152;-72
2021/12/28 02:50:54;;;;;;;3.97;0.80;;;;;;;8.50;97.98;97450.22;1991386;81;20265;-72
2021/12/28 02:53:57;;;;;;;3.97;0.71;;;;;;;8.50;98.18;97436.44;1987732;81;20315;-72
2021/12/28 02:57:00;;;;;;;6.00;0.80;;;;;;;8.48;98.28;97437.31;1987158;81;20340;-72
2021/12/28 03:00:06;;;;;;;4.10;0.73;;;;;;;8.49;98.49;97427.81;1986855;81;20385;-72
2021/12/28 03:03:15;;;;;;;3.95;0.85;;;;;;;8.50;98.48;97429.53;1989231;79;20835;-72
2021/12/28 03:06:20;;;;;;;3.21;0.61;;;;;;;8.48;98.51;97418.38;1989655;81;20401;-72
2021/12/28 03:09:23;;;;;;;3.53;1.10;;;;;;;8.48;98.68;97415.78;1989708;81;21148;-72
2021/12/28 03:12:26;;;;;;;4.07;0.88;;;;;;;8.48;98.86;97423.53;1989257;81;20339;-72
2021/12/28 03:15:28;;;;;;;1.94;0.85;;;;;;;8.47;98.86;97417.53;1987816;79;22669;-71
2021/12/28 03:18:31;;;;;;;4.11;0.69;;;;;;;8.47;98.98;97419.25;1989501;81;20353;-71
2021/12/28 03:21:35;;;;;;;1.91;0.65;;;;;;;8.48;99.00;97418.38;1990452;81;20381;-72
2021/12/28 03:24:38;;;;;;;4.61;0.81;;;;;;;8.50;99.04;97413.16;1988881;81;20331;-71
2021/12/28 03:27:43;;;;;;;5.31;0.85;;;;;;;8.48;99.17;97416.63;1989922;81;20353;-71
2021/12/28 03:30:47;;;;;;;4.69;0.85;;;;;;;8.48;99.24;97403.69;1988328;79;22741;-71
2021/12/28 03:33:53;;;;;;;2.96;0.64;;;;;;;8.50;99.29;97403.66;1989826;81;20379;-72
2021/12/28 03:36:55;;;;;;;3.80;0.63;;;;;;;8.48;99.35;97397.69;1989047;81;20405;-72
2021/12/28 03:39:59;;;;;;;3.41;1.45;;;;;;;8.48;99.48;97406.28;1990067;81;20426;-74
2021/12/28 03:43:02;;;;;;;1.49;0.50;;;;;;;8.46;99.64;97395.16;1989242;81;20392;-72
2021/12/28 03:46:05;;;;;;;3.30;0.60;;;;;;;8.45;99.64;97380.53;1988272;79;22432;-71
2021/12/28 03:49:08;;;;;;;2.10;0.50;;;;;;;8.45;99.64;97375.34;1989023;81;20388;-72
2021/12/28 03:52:11;;;;;;;1.30;0.50;;;;;;;8.43;99.60;97369.34;1989428;81;20361;-72
2021/12/28 03:55:13;;;;;;;2.29;0.57;;;;;;;8.42;99.70;97361.63;1988889;81;20889;-71
2021/12/28 03:58:16;;;;;;;2.59;0.50;;;;;;;8.43;99.78;97374.50;1989473;81;20355;-71
2021/12/28 04:01:22;;;;;;;2.55;0.60;;;;;;;8.42;99.80;97367.66;1987328;79;21768;-71
2021/12/28 04:04:26;;;;;;;1.94;0.50;;;;;;;8.42;99.68;97359.88;1989157;81;20332;-72
2021/12/28 04:07:29;;;;;;;1.09;0.40;;;;;;;8.43;99.42;97358.16;1988748;81;20859;-71
2021/12/28 04:10:38;;;;;;;2.36;0.34;;;;;;;8.43;99.35;97359.00;1988281;81;20916;-72
2021/12/28 04:13:44;;;;;;;1.30;0.75;;;;;;;8.42;99.31;97356.47;1988495;81;20380;-71
2021/12/28 04:16:46;;;;;;;0.30;0.20;;;;;;;8.40;99.23;97355.66;1986678;79;22079;-72
2021/12/28 04:19:49;;;;;;;0.86;0.32;;;;;;;8.40;99.11;97348.75;1989137;81;20354;-71
2021/12/28 04:22:52;;;;;;;0.76;0.30;;;;;;;8.38;98.93;97331.59;1987607;81;20357;-71
2021/12/28 04:25:54;;;;;;;3.83;0.28;;;;;;;8.38;98.99;97329.00;1988371;81;20335;-73
2021/12/28 04:28:57;;;;;;;3.47;0.28;;;;;;;8.39;98.93;97310.84;1988088;81;20371;-71
2021/12/28 04:32:00;;;;;;;0.96;0.30;;;;;;;8.38;98.87;97296.22;1986101;79;28182;-72
2021/12/28 04:35:04;;;;;;;1.91;0.49;;;;;;;8.37;98.77;97297.13;1988517;81;20941;-72
2021/12/28 04:38:06;;;;;;;2.61;0.30;;;;;;;8.36;98.81;97271.31;1987820;81;20865;-73
2021/12/28 04:41:12;;;;;;;2.03;0.77;;;;;;;8.36;98.88;97267.00;1987850;81;21050;-72
2021/12/28 04:44:21;;;;;;;1.25;0.30;;;;;;;8.34;98.87;97273.09;1988452;81;20319;-72
2021/12/28 04:47:25;;;;;;;0.47;0.30;;;;;;;8.33;99.06;97259.28;1985792;79;21342;-74
2021/12/28 04:50:29;;;;;;;1.25;0.34;;;;;;;8.35;99.16;97256.69;1988285;81;20406;-72
2021/12/28 04:53:33;;;;;;;1.49;0.30;;;;;;;8.32;99.15;97254.19;1987839;81;20370;-71
2021/12/28 04:56:35;;;;;;;0.26;0.20;;;;;;;8.27;99.40;97256.91;1988078;81;20337;-71
2021/12/28 04:59:38;;;;;;;0.86;0.28;;;;;;;8.30;99.66;97253.38;1987860;81;20353;-72
2021/12/28 05:02:41;;;;;;;1.05;0.21;;;;;;;8.26;99.65;97257.78;1986370;79;21098;-73
2021/12/28 05:05:46;;;;;;;0.94;0.20;;;;;;;8.25;99.90;97258.66;1988021;81;20320;-72
2021/12/28 05:08:49;;;;;;;0.36;0.20;;;;;;;8.24;100.00;97262.13;1987894;81;20760;-72
2021/12/28 05:11:51;;;;;;;0.59;0.20;;;;;;;8.19;100.00;97249.34;1983968;81;20433;-73
2021/12/28 05:14:56;;;;;;;0.20;0.20;;;;;;;8.21;100.00;97251.03;1987713;81;20917;-73
2021/12/28 05:17:59;;;;;;;0.59;0.10;;;;;;;8.19;100.00;97251.94;1985573;79;21651;-73
2021/12/28 05:21:02;;;;;;;0.59;0.17;;;;;;;8.20;100.00;97245.03;1988162;81;20421;-73
2021/12/28 05:24:05;;;;;;;0.17;0.17;;;;;;;8.20;100.00;97247.63;1988321;81;20946;-74
2021/12/28 05:27:08;;;;;;;0.61;0.20;;;;;;;8.22;100.00;97243.25;1988028;81;20319;-72
2021/12/28 05:30:11;;;;;;;0.39;0.20;;;;;;;8.25;100.00;97243.16;1986780;81;20511;-72
2021/12/28 05:33:15;;;;;;;1.90;0.20;;;;;;;8.27;100.00;97249.16;1987900;79;20369;-72
2021/12/28 05:36:18;;;;;;;0.21;0.21;;;;;;;8.31;100.00;97244.72;1987891;81;20303;-72
2021/12/28 05:39:20;;;;;;;1.17;0.20;;;;;;;8.36;100.00;97259.22;1988165;81;20355;-72
2021/12/28 05:42:23;;;;;;;0.30;0.19;;;;;;;8.39;100.00;97250.53;1987542;81;20950;-72
2021/12/28 05:45:26;;;;;;;1.29;0.28;;;;;;;8.43;100.00;97245.22;1985723;79;22529;-72
2021/12/28 05:48:29;;;;;;;0.56;0.19;;;;;;;8.45;100.00;97240.88;1987526;81;21234;-72
2021/12/28 05:51:31;;;;;;;0.22;0.17;;;;;;;8.50;100.00;97235.53;1987733;81;20340;-72
2021/12/28 05:54:34;;;;;;;0.86;0.20;;;;;;;8.54;100.00;97234.56;1987521;81;20345;-72
2021/12/28 05:57:37;;;;;;;0.75;0.20;;;;;;;8.58;100.00;97240.47;1987531;81;20434;-72
2021/12/28 06:00:40;;;;;;;0.45;0.30;;;;;;;8.63;100.00;97233.44;1986103;79;21314;-72
2021/12/28 06:03:43;;;;;;;0.20;0.20;;;;;;;8.65;100.00;97237.66;1987759;81;20835;-73
2021/12/28 06:06:45;;;;;;;0.68;0.30;;;;;;;8.69;100.00;97243.59;1988725;81;20393;-72
2021/12/28 06:09:48;;;;;;;0.80;0.51;;;;;;;8.70;100.00;97248.69;1987419;81;20367;-73
2021/12/28 06:12:51;;;;;;;0.20;0.20;;;;;;;8.72;100.00;97236.56;1987954;81;20331;-73
2021/12/28 06:15:54;;;;;;;0.54;0.30;;;;;;;8.74;100.00;97241.69;1985561;79;21994;-73
2021/12/28 06:18:56;;;;;;;0.39;0.20;;;;;;;8.76;100.00;97247.66;1987782;81;20382;-72
2021/12/28 06:21:59;;;;;;;0.36;0.22;;;;;;;8.78;100.00;97251.88;1987640;81;20397;-73
2021/12/28 06:25:04;;;;;;;1.89;0.20;;;;;;;8.82;100.00;97256.97;1990790;81;20542;-73
2021/12/28 06:28:06;;;;;;;1.71;0.30;;;;;;;8.84;100.00;97255.19;1987454;81;20418;-72
2021/12/28 06:31:09;;;;;;;1.48;0.22;;;;;;;8.86;100.00;97254.25;1986413;79;24059;-73
2021/12/28 06:34:12;;;;;;;0.73;0.20;;;;;;;8.87;100.00;97261.09;1987974;81;20343;-72
2021/12/28 06:37:15;;;;;;;0.21;0.19;;;;;;;8.90;100.00;97265.34;1988197;81;20957;-72
2021/12/28 06:40:17;;;;;;;0.47;0.20;;;;;;;8.92;100.00;97266.13;1987821;81;20725;-73
2021/12/28 06:43:20;;;;;;;0.36;0.20;;;;;;;8.91;100.00;97278.22;1988192;81;20348;-73
2021/12/28 06:46:22;;;;;;;0.10;0.10;;;;;;;8.92;100.00;97285.09;1985234;79;21915;-73
2021/12/28 06:49:25;;;;;;;0.41;0.17;;;;;;;8.93;100.00;97281.59;1987623;81;20978;-72
2021/12/28 06:52:28;;;;;;;0.20;0.20;;;;;;;8.91;100.00;97275.63;1987821;81;21010;-72
2021/12/28 06:55:30;;;;;;;0.29;0.10;;;;;;;8.93;100.00;97284.19;1987556;81;20410;-72
2021/12/28 06:58:33;;;;;;;1.01;0.10;;;;;;;8.91;100.00;97280.81;1987794;81;20949;-73
2021/12/28 07:01:35;;;;;;;0.30;0.20;;;;;;;8.91;100.00;97285.16;1986067;79;21553;-72
2021/12/28 07:04:39;;;;;;;0.45;0.10;;;;;;;8.91;100.00;97282.56;1987607;81;20336;-72
2021/12/28 07:07:41;;;;;;;0.10;0.10;;;;;;;8.91;100.00;97286.00;1987254;81;20355;-73
2021/12/28 07:10:44;;;;;;;0.10;0.10;;;;;;;8.92;100.00;97292.00;1987212;81;20324;-72
2021/12/28 07:13:47;;;;;;;0.10;0.10;;;;;;;8.93;100.00;97294.53;1986850;81;20832;-72
2021/12/28 07:16:49;;;;;;;0.10;0.10;;;;;;;8.95;100.00;97303.09;1986502;79;22715;-74
2021/12/28 07:19:53;;;;;;;0.10;0.10;;;;;;;8.98;100.00;97305.63;1989004;81;20847;-74
2021/12/28 07:22:55;;;;;;;1.08;0.11;;;;;;;9.01;100.00;97308.09;1988235;81;20888;-74
2021/12/28 07:25:59;;;;;;;0.22;0.10;;;;;;;9.02;100.00;97311.53;1989074;81;20433;-74
2021/12/28 07:29:03;;;;;;;0.44;0.10;;;;;;;9.04;100.00;97317.50;1988400;81;20922;-73
2021/12/28 07:32:08;;;;;;;0.10;0.10;;;;;;;9.08;100.00;97326.88;1985073;79;20347;-73
2021/12/28 07:35:11;;;;;;;0.24;0.10;;;;;;;9.12;100.00;97325.03;1987297;81;20356;-73
2021/12/28 07:38:14;;;;;;;0.10;0.10;;;;;;;9.14;100.00;97331.00;1987321;81;20316;-73
2021/12/28 07:41:17;;;;;;;0.25;0.20;;;;;;;9.14;100.00;97347.38;1988556;81;20352;-73
2021/12/28 07:44:21;;;;;;;1.13;0.10;;;;;;;9.18;100.00;97358.50;1986565;81;21269;-74
2021/12/28 07:47:23;;;;;;;0.76;0.30;;;;;;;9.22;100.00;97360.09;1985764;79;22769;-73
2021/12/28 07:50:26;;;;;;;0.13;0.10;;;;;;;9.25;100.00;97360.84;1987340;81;20343;-73
2021/12/28 07:53:29;;;;;;;1.55;0.10;;;;;;;9.29;100.00;97369.34;1987802;81;20821;-72
2021/12/28 07:56:31;;;;;;;0.10;0.10;;;;;;;9.32;100.00;97374.44;1987392;81;20348;-73
2021/12/28 07:59:34;;;;;;;0.10;0.10;;;;;;;9.35;100.00;97382.97;1987488;81;20469;-73
2021/12/28 08:02:38;;;;;;;0.66;0.11;;;;;;;9.40;100.00;97390.59;1985138;81;23118;-73
2021/12/28 08:05:40;;;;;;;0.13;0.10;;;;;;;9.44;100.00;97394.78;1986831;81;20328;-72
2021/12/28 08:08:43;;;;;;;0.10;0.10;;;;;;;9.47;100.00;97404.19;1986500;81;20332;-72
2021/12/28 08:11:46;;;;;;;0.10;0.10;;;;;;;9.50;100.00;97407.53;1986818;81;20395;-72
2021/12/28 08:14:48;;;;;;;0.16;0.10;;;;;;;9.54;100.00;97422.09;1987577;81;20196;-72
2021/12/28 08:17:51;;;;;;;0.11;0.10;;;;;;;9.57;100.00;97421.16;1985771;79;23181;-72
2021/12/28 08:20:54;;;;;;;0.49;0.10;;;;;;;9.63;100.00;97429.56;1986637;81;20939;-72
2021/12/28 08:23:57;;;;;;;0.10;0.10;;;;;;;9.69;100.00;97431.09;1988213;81;20192;-72
2021/12/28 08:27:00;;;;;;;0.59;0.20;;;;;;;9.73;100.00;97439.63;1987083;81;20327;-73
2021/12/28 08:30:04;;;;;;;0.10;0.10;;;;;;;9.79;100.00;97449.78;1987067;81;20353;-73
2021/12/28 08:33:08;;;;;;;0.10;0.10;;;;;;;9.85;100.00;97445.25;1986691;79;22331;-73
2021/12/28 08:36:11;;;;;;;1.42;0.50;;;;;;;9.88;100.00;97452.09;1988226;81;20337;-72
2021/12/28 08:39:15;;;;;;;0.69;0.10;;;;;;;9.93;100.00;97465.75;1986912;81;20373;-74
2021/12/28 08:42:19;;;;;;;0.35;0.10;;;;;;;9.96;100.00;97465.66;1988761;81;20858;-73
2021/12/28 08:45:22;;;;;;;0.15;0.10;;;;;;;9.96;100.00;97469.09;1985473;79;21050;-74
2021/12/28 08:48:25;;;;;;;0.34;0.10;;;;;;;9.97;100.00;97465.59;1983779;81;20297;-74
2021/12/28 08:51:27;;;;;;;0.59;0.21;;;;;;;9.98;100.00;97471.63;1987932;81;20592;-73
2021/12/28 08:54:30;;;;;;;0.20;0.20;;;;;;;9.99;100.00;97476.75;1987290;81;20200;-73
2021/12/28 08:57:33;;;;;;;0.40;0.20;;;;;;;10.00;100.00;97477.59;1987828;81;20355;-73
2021/12/28 09:00:37;;;;;;;0.47;0.30;;;;;;;10.04;100.00;97481.78;1983939;79;23004;-75
2021/12/28 09:03:39;;;;;;;0.86;0.20;;;;;;;10.07;100.00;97493.81;1987330;81;20227;-73
2021/12/28 09:06:43;;;;;;;0.45;0.20;;;;;;;10.08;100.00;97493.78;1986847;81;20788;-72
2021/12/28 09:09:46;;;;;;;0.84;0.20;;;;;;;10.11;100.00;97492.81;1984506;81;20365;-73
2021/12/28 09:12:49;;;;;;;0.55;0.20;;;;;;;10.11;100.00;97488.47;1986684;81;20397;-73
2021/12/28 09:15:51;;;;;;;0.22;0.17;;;;;;;10.14;100.00;97495.31;1983697;79;20200;-72
2021/12/28 09:18:54;;;;;;;1.13;0.30;;;;;;;10.16;100.00;97491.75;1985648;81;21267;-72
2021/12/28 09:21:57;;;;;;;3.09;0.25;;;;;;;10.18;100.00;97499.50;1986025;81;20320;-73
2021/12/28 09:25:00;;;;;;;0.76;0.20;;;;;;;10.18;100.00;97494.31;1985225;81;20394;-73
2021/12/28 09:28:04;;;;;;;0.82;0.10;;;;;;;10.18;100.00;97500.34;1988235;81;20248;-73
2021/12/28 09:31:07;;;;;;;0.61;0.26;;;;;;;10.19;100.00;97496.00;1983689;79;23599;-73
2021/12/28 09:34:10;;;;;;;0.45;0.20;;;;;;;10.19;100.00;97499.44;1985363;81;20430;-72
2021/12/28 09:37:29;;;;;;;0.76;0.20;;;;;;;10.20;100.00;97500.28;1985581;81;20828;-73
2021/12/28 09:40:34;;;;;;;1.75;0.20;;;;;;;10.21;100.00;97489.03;1985158;81;20324;-73
2021/12/28 09:43:38;;;;;;;1.63;0.30;;;;;;;10.24;100.00;97494.16;1985335;81;20394;-72
2021/12/28 09:46:41;;;;;;;0.44;0.21;;;;;;;10.27;100.00;97507.00;1984250;79;20841;-73
2021/12/28 09:49:44;;;;;;;1.19;0.20;;;;;;;10.32;100.00;97517.22;1986193;81;20215;-72
2021/12/28 09:52:49;;;;;;;1.31;0.21;;;;;;;10.37;100.00;97516.16;1986511;81;20196;-73
2021/12/28 09:55:52;;;;;;;0.40;0.20;;;;;;;10.38;100.00;97506.63;1985853;81;20256;-74
2021/12/28 09:58:55;;;;;;;1.59;0.40;;;;;;;10.40;100.00;97510.03;1985847;81;20302;-72
2021/12/28 10:02:09;;;;;;;0.40;0.20;;;;;;;10.40;100.00;97504.84;1983785;79;20215;-72
2021/12/28 10:05:15;;;;;;;0.71;0.20;;;;;;;10.40;100.00;97513.47;1985568;81;20755;-72
2021/12/28 10:08:24;;;;;;;0.98;0.20;;;;;;;10.46;100.00;97510.69;1985496;81;20833;-72
2021/12/28 10:11:53;;;;;;;1.16;0.20;;;;;;;10.52;100.00;97504.41;1985505;81;20325;-72
2021/12/28 10:14:58;;;;;;;;;;;;;;;10.52;100.00;97504.41;1985602;81;20184;-73
2021/12/28 10:18:06;;;;;;;2.09;0.45;;;;;;;10.54;100.00;97507.81;1983637;79;21741;-73
2021/12/28 10:21:08;;;;;;;0.80;0.20;;;;;;;10.61;100.00;97498.94;1984996;81;20200;-73
2021/12/28 10:24:11;;;;;;;1.49;0.30;;;;;;;10.68;100.00;97505.59;1985528;81;20160;-73
2021/12/28 10:27:17;;;;;;;1.26;0.30;;;;;;;10.72;100.00;97507.16;1985407;81;20209;-73
2021/12/28 10:30:23;;;;;;;1.00;0.30;;;;;;;10.70;99.38;97497.75;1984411;79;23683;-73
2021/12/28 10:33:28;;;;;;;1.56;0.30;;;;;;;10.70;99.25;97500.34;1986477;81;20176;-73
2021/12/28 10:36:33;;;;;;;0.66;0.20;;;;;;;10.68;98.96;97497.81;1986623;81;20195;-73
2021/12/28 10:39:47;;;;;;;0.91;0.30;;;;;;;10.68;98.66;97502.13;1986522;81;20818;-73
2021/12/28 10:43:04;;;;;;;2.50;0.40;;;;;;;10.70;98.62;97502.94;1986435;81;20191;-73
2021/12/28 10:46:10;;;;;;;0.95;0.30;;;;;;;10.71;98.65;97513.25;1985904;79;24816;-73
2021/12/28 10:49:14;;;;;;;1.30;0.31;;;;;;;10.74;98.24;97509.69;1987291;81;20743;-73
2021/12/28 10:52:27;;;;;;;1.38;0.25;;;;;;;10.82;98.13;97505.09;1986593;81;20341;-73
2021/12/28 10:55:30;;;;;;;0.96;0.20;;;;;;;10.86;97.18;97497.13;1986221;81;20213;-73
2021/12/28 10:58:39;;;;;;;1.10;0.20;;;;;;;10.87;95.89;97504.03;1987218;81;20199;-73
2021/12/28 11:01:42;;;;;;;1.84;0.30;;;;;;;10.84;95.79;97511.09;1985083;79;28777;-73
2021/12/28 11:04:45;;;;;;;1.25;0.20;;;;;;;10.80;95.38;97514.69;1987182;81;20209;-73
2021/12/28 11:07:58;;;;;;;1.21;0.21;;;;;;;10.75;95.38;97517.44;1987644;81;20156;-73
2021/12/28 11:11:06;;;;;;;1.65;0.40;;;;;;;10.72;95.53;97525.34;1987361;81;20281;-73
2021/12/28 11:14:17;;;;;;;2.74;0.60;;;;;;;10.77;95.87;97522.56;1987379;81;20192;-73
2021/12/28 11:17:30;;;;;;;1.04;0.40;;;;;;;10.82;96.37;97521.53;1984884;79;20207;-73
2021/12/28 11:20:33;;;;;;;0.77;0.30;;;;;;;10.79;96.06;97503.47;1986736;81;20746;-73
2021/12/28 11:23:35;;;;;;;2.76;0.30;;;;;;;10.74;95.81;97501.91;1985492;81;21352;-73
2021/12/28 11:26:44;;;;;;;2.50;0.71;;;;;;;10.72;96.04;97494.19;1985970;81;20193;-73
2021/12/28 11:29:47;;;;;;;2.90;0.39;;;;;;;10.66;95.95;97502.19;1985793;81;20187;-73
2021/12/28 11:33:08;;;;;;;2.16;0.30;;;;;;;10.58;96.33;97510.22;1984233;79;22996;-72
2021/12/28 11:36:12;;;;;;;4.19;0.40;;;;;;;10.53;96.68;97516.50;1986054;81;20816;-73
2021/12/28 11:39:20;;;;;;;3.50;0.64;;;;;;;10.49;97.10;97515.75;1986165;81;20191;-73
2021/12/28 11:42:23;;;;;;;2.76;0.41;;;;;;;10.49;97.47;97497.59;1988686;81;20301;-72
2021/12/28 11:45:27;;;;;;;3.67;0.69;;;;;;;10.51;97.52;97494.94;1984608;79;21539;-72
2021/12/28 11:48:30;;;;;;;3.65;0.76;;;;;;;10.49;97.35;97486.38;1985934;81;20403;-73
2021/12/28 11:51:33;;;;;;;2.13;0.60;;;;;;;10.50;97.52;97482.88;1986087;81;20184;-72
2021/12/28 11:54:40;;;;;;;4.25;0.60;;;;;;;10.47;97.47;97483.81;1986004;81;20249;-73
2021/12/28 11:57:52;;;;;;;5.22;0.80;;;;;;;10.49;97.58;97474.25;1985442;81;20192;-73
2021/12/28 12:00:54;;;;;;;4.11;0.74;;;;;;;10.47;97.39;97455.28;1983281;79;21470;-73
2021/12/28 12:03:57;;;;;;;5.10;0.80;;;;;;;10.45;97.28;97433.75;1985618;81;20196;-72
2021/12/28 12:06:59;;;;;;;3.96;0.71;;;;;;;10.46;97.26;97434.59;1987114;81;21104;-72
2021/12/28 12:10:07;;;;;;;9.07;0.76;;;;;;;10.43;97.12;97438.13;1987153;81;20753;-73
2021/12/28 12:13:30;;;;;;;6.09;1.91;;;;;;;10.41;97.31;97420.91;1987125;81;21134;-72
2021/12/28 12:16:33;;;;;;;6.13;1.39;;;;;;;10.37;97.33;97430.56;1985537;79;22185;-73
2021/12/28 12:19:49;;;;;;;5.05;0.52;;;;;;;10.35;97.38;97434.94;1986276;81;20234;-73
2021/12/28 12:22:55;;;;;;;4.47;0.70;;;;;;;10.36;97.72;97423.66;1986597;81;20211;-72
2021/12/28 12:26:11;;;;;;;4.93;0.76;;;;;;;10.33;97.78;97421.19;1986346;81;20180;-72
2021/12/28 12:29:20;;;;;;;4.81;0.79;;;;;;;10.31;97.99;97423.00;1986216;81;20172;-72
2021/12/28 12:32:55;;;;;;;4.14;0.85;;;;;;;10.29;98.32;97419.63;1985330;79;23324;-72
2021/12/28 12:35:59;;;;;;;3.91;0.60;;;;;;;10.25;98.70;97424.06;1985778;81;20192;-72
2021/12/28 12:39:04;;;;;;;2.55;0.40;;;;;;;10.24;99.10;97424.97;1985792;81;20177;-73
2021/12/28 12:42:11;;;;;;;1.99;0.35;;;;;;;10.21;99.58;97421.59;1985978;81;20236;-73
2021/12/28 12:45:14;;;;;;;1.39;0.30;;;;;;;10.23;99.53;97396.47;1984952;81;20179;-73
2021/12/28 12:48:29;;;;;;;0.76;0.26;;;;;;;10.23;98.77;97394.75;1986024;79;23518;-72
2021/12/28 12:51:36;;;;;;;1.85;0.30;;;;;;;10.24;97.86;97391.25;1986646;81;20904;-72
2021/12/28 12:54:42;;;;;;;0.98;0.20;;;;;;;10.27;97.39;97406.69;1986298;81;20227;-72
2021/12/28 12:57:45;;;;;;;7.65;3.91;;;;;;;10.22;96.37;97441.44;1986425;81;20388;-72
2021/12/28 13:00:48;;;;;;;5.29;2.08;;;;;;;10.22;96.54;97447.50;1985345;79;20348;-73
2021/12/28 13:03:51;;;;;;;3.65;2.06;;;;;;;10.09;94.33;97464.34;1985774;81;20241;-72
2021/12/28 13:07:13;;;;;;;2.47;1.34;;;;;;;9.99;94.45;97453.44;1985492;81;20284;-72
2021/12/28 13:10:27;;;;;;;2.71;0.99;;;;;;;9.91;94.40;97458.03;1986897;81;20706;-72
2021/12/28 13:13:30;;;;;;;2.50;0.44;;;;;;;9.87;95.13;97445.19;1986816;81;20202;-73
2021/12/28 13:16:33;;;;;;;4.10;0.60;;;;;;;9.85;95.40;97437.47;1985690;79;27489;-73
2021/12/28 13:19:38;;;;;;;2.15;0.45;;;;;;;9.83;95.86;97439.28;1986203;81;20386;-72
2021/12/28 13:22:45;;;;;;;1.15;0.38;;;;;;;9.82;95.90;97444.50;1986241;81;20207;-73
2021/12/28 13:25:49;;;;;;;0.77;0.30;;;;;;;9.78;95.46;97464.50;1986434;81;21491;-73
2021/12/28 13:29:00;;;;;;;2.75;0.55;;;;;;;9.81;95.35;97474.75;1981858;81;20209;-73
2021/12/28 13:32:24;;;;;;;1.91;0.30;;;;;;;9.80;95.44;97480.00;1983926;79;31334;-73
2021/12/28 13:35:30;;;;;;;3.50;0.61;;;;;;;9.80;95.59;97467.03;1985879;81;20327;-73
2021/12/28 13:38:33;;;;;;;6.81;0.89;;;;;;;9.80;95.68;97441.13;1986014;81;20359;-73
2021/12/28 13:41:35;;;;;;;2.24;0.30;;;;;;;9.80;95.25;97418.63;1985168;81;20323;-73
2021/12/28 13:44:44;;;;;;;4.61;0.43;;;;;;;9.79;95.15;97416.94;1985528;81;20356;-73
2021/12/28 13:47:47;;;;;;;2.59;0.46;;;;;;;9.83;94.88;97428.06;1984055;79;20191;-74
2021/12/28 13:50:55;;;;;;;6.03;0.65;;;;;;;9.82;94.10;97406.47;1984880;81;20179;-74
2021/12/28 13:54:00;;;;;;;5.97;0.88;;;;;;;9.82;93.97;97418.59;1986429;81;20192;-74
2021/12/28 13:57:04;;;;;;;6.68;1.30;;;;;;;9.84;94.09;97409.00;1985019;81;20227;-73
2021/12/28 14:00:10;;;;;;;4.78;1.11;;;;;;;9.85;93.58;97414.16;1984213;81;21271;-73
2021/12/28 14:03:13;;;;;;;8.00;1.15;;;;;;;9.84;93.16;97414.19;1985191;78;23703;-73
2021/12/28 14:06:16;;;;;;;6.95;0.90;;;;;;;9.79;92.67;97421.28;1985457;81;20315;-74
2021/12/28 14:09:24;;;;;;;7.61;1.01;;;;;;;9.75;92.30;97419.69;1985936;81;20196;-73
2021/12/28 14:12:27;;;;;;;4.44;0.89;;;;;;;9.66;91.94;97426.00;1986573;81;20370;-74
2021/12/28 14:15:30;;;;;;;7.65;1.15;;;;;;;9.62;91.64;97420.09;1985113;79;23421;-73
2021/12/28 14:18:34;;;;;;;6.14;0.91;;;;;;;9.56;91.77;97409.09;1985606;81;20427;-73
2021/12/28 14:21:44;;;;;;;6.76;1.40;;;;;;;9.50;90.89;97415.28;1985701;81;20385;-76
2021/12/28 14:24:50;;;;;;;6.99;1.20;;;;;;;9.49;89.91;97436.06;1985804;81;20335;-73
2021/12/28 14:27:54;;;;;;;8.74;0.96;;;;;;;9.44;89.71;97425.84;1986592;81;20389;-73
2021/12/28 14:31:09;;;;;;;6.56;1.14;;;;;;;9.46;88.68;97418.03;1984336;81;33122;-73
2021/12/28 14:34:14;;;;;;;8.61;1.50;;;;;;;9.44;87.82;97461.28;1985690;81;20393;-74